Terminal Aerodrome Forecast
Issued by NWS

Current Version | Previous Version | Text Only | Print | Product List | Glossary On
Versions: 1 2 3 4 5 6 7 8 9 10 11 12 13 14 15 16 17
000
FTUS44 KEPZ 210500
TAFDMN
TAF
KDMN 210520Z 2106/2206 27006KT P6SM FEW070 FEW120
     FM210700 30006KT P6SM FEW100
     FM211600 15008KT P6SM SCT080
     FM220100 VRB05KT P6SM SKC=

USA.gov is the U.S. government's official web portal to all federal, state and local government web resources and services.